sensor_id;sensor_type;location;lat;lon;timestamp;pressure;altitude;pressure_sealevel;temperature;humidity
65832;BME280;52593;42.648;23.332;2023-04-25T00:01:46;93812.34;;;9.27;100.00
65832;BME280;52593;42.648;23.332;2023-04-25T00:04:11;93812.38;;;9.34;100.00
65832;BME280;52593;42.648;23.332;2023-04-25T00:06:37;93792.84;;;9.26;100.00
65832;BME280;52593;42.648;23.332;2023-04-25T00:09:05;93785.25;;;9.30;100.00
65832;BME280;52593;42.648;23.332;2023-04-25T00:11:35;93773.38;;;9.33;100.00
65832;BME280;52593;42.648;23.332;2023-04-25T00:14:00;93775.25;;;9.39;100.00
65832;BME280;52593;42.648;23.332;2023-04-25T00:16:28;93773.81;;;9.43;100.00
65832;BME280;52593;42.648;23.332;2023-04-25T00:18:54;93783.09;;;9.47;100.00
65832;BME280;52593;42.648;23.332;2023-04-25T00:21:20;93767.50;;;9.51;100.00
65832;BME280;52593;42.648;23.332;2023-04-25T00:23:46;93758.84;;;9.42;100.00
65832;BME280;52593;42.648;23.332;2023-04-25T00:26:12;93747.53;;;9.40;100.00
65832;BME280;52593;42.648;23.332;2023-04-25T00:28:39;93733.75;;;9.36;100.00
65832;BME280;52593;42.648;23.332;2023-04-25T00:31:04;93736.19;;;9.31;100.00
65832;BME280;52593;42.648;23.332;2023-04-25T00:33:30;93748.50;;;9.32;100.00
65832;BME280;52593;42.648;23.332;2023-04-25T00:35:55;93739.09;;;9.36;100.00
65832;BME280;52593;42.648;23.332;2023-04-25T00:38:21;93736.22;;;9.38;100.00
65832;BME280;52593;42.648;23.332;2023-04-25T00:40:46;93721.41;;;9.35;100.00
65832;BME280;52593;42.648;23.332;2023-04-25T00:43:12;93734.56;;;9.37;100.00
65832;BME280;52593;42.648;23.332;2023-04-25T00:45:39;93735.63;;;9.42;100.00
65832;BME280;52593;42.648;23.332;2023-04-25T00:48:05;93726.09;;;9.26;100.00
65832;BME280;52593;42.648;23.332;2023-04-25T00:50:30;93718.41;;;9.17;100.00
65832;BME280;52593;42.648;23.332;2023-04-25T00:52:58;93732.53;;;9.10;100.00
65832;BME280;52593;42.648;23.332;2023-04-25T00:55:23;93725.31;;;9.04;100.00
65832;BME280;52593;42.648;23.332;2023-04-25T00:57:49;93727.59;;;9.07;100.00
65832;BME280;52593;42.648;23.332;2023-04-25T01:00:15;93728.22;;;9.09;100.00
65832;BME280;52593;42.648;23.332;2023-04-25T01:02:41;93736.03;;;9.11;100.00
65832;BME280;52593;42.648;23.332;2023-04-25T01:05:07;93739.44;;;8.98;100.00
65832;BME280;52593;42.648;23.332;2023-04-25T01:07:33;93744.41;;;9.08;100.00
65832;BME280;52593;42.648;23.332;2023-04-25T01:09:59;93731.94;;;9.08;100.00
65832;BME280;52593;42.648;23.332;2023-04-25T01:12:25;93722.03;;;9.02;100.00
65832;BME280;52593;42.648;23.332;2023-04-25T01:14:50;93723.47;;;9.05;100.00
65832;BME280;52593;42.648;23.332;2023-04-25T01:17:16;93714.94;;;9.16;100.00
65832;BME280;52593;42.648;23.332;2023-04-25T01:19:42;93705.88;;;9.17;100.00
65832;BME280;52593;42.648;23.332;2023-04-25T01:22:08;93703.00;;;9.12;100.00
65832;BME280;52593;42.648;23.332;2023-04-25T01:24:36;93684.91;;;9.07;100.00
65832;BME280;52593;42.648;23.332;2023-04-25T01:27:02;93696.84;;;9.12;100.00
65832;BME280;52593;42.648;23.332;2023-04-25T01:29:28;93692.53;;;9.17;100.00
65832;BME280;52593;42.648;23.332;2023-04-25T01:31:54;93713.28;;;9.15;100.00
65832;BME280;52593;42.648;23.332;2023-04-25T01:34:20;93713.56;;;8.99;100.00
65832;BME280;52593;42.648;23.332;2023-04-25T01:36:49;93709.75;;;8.80;100.00
65832;BME280;52593;42.648;23.332;2023-04-25T01:39:15;93729.31;;;8.87;100.00
65832;BME280;52593;42.648;23.332;2023-04-25T01:41:40;93712.84;;;8.83;100.00
65832;BME280;52593;42.648;23.332;2023-04-25T01:44:06;93710.03;;;8.91;100.00
65832;BME280;52593;42.648;23.332;2023-04-25T01:46:33;93721.53;;;8.92;100.00
65832;BME280;52593;42.648;23.332;2023-04-25T01:48:59;93724.34;;;8.84;100.00
65832;BME280;52593;42.648;23.332;2023-04-25T01:51:24;93725.38;;;8.83;100.00
65832;BME280;52593;42.648;23.332;2023-04-25T01:53:50;93726.94;;;8.77;100.00
65832;BME280;52593;42.648;23.332;2023-04-25T01:56:17;93732.56;;;8.82;100.00
65832;BME280;52593;42.648;23.332;2023-04-25T01:58:43;93723.91;;;8.80;100.00
65832;BME280;52593;42.648;23.332;2023-04-25T02:01:08;93736.91;;;8.90;100.00
65832;BME280;52593;42.648;23.332;2023-04-25T02:03:34;93725.75;;;8.80;100.00
65832;BME280;52593;42.648;23.332;2023-04-25T02:05:59;93715.38;;;8.91;100.00
65832;BME280;52593;42.648;23.332;2023-04-25T02:08:25;93710.66;;;8.93;100.00
65832;BME280;52593;42.648;23.332;2023-04-25T02:10:51;93718.28;;;8.97;100.00
65832;BME280;52593;42.648;23.332;2023-04-25T02:13:17;93707.22;;;9.00;100.00
65832;BME280;52593;42.648;23.332;2023-04-25T02:15:42;93719.88;;;8.91;100.00
65832;BME280;52593;42.648;23.332;2023-04-25T02:18:08;93719.06;;;8.90;100.00
65832;BME280;52593;42.648;23.332;2023-04-25T02:20:35;93688.44;;;8.86;100.00
65832;BME280;52593;42.648;23.332;2023-04-25T02:23:01;93692.94;;;8.79;100.00
65832;BME280;52593;42.648;23.332;2023-04-25T02:25:27;93686.44;;;8.88;100.00
65832;BME280;52593;42.648;23.332;2023-04-25T02:27:52;93679.19;;;8.82;100.00
65832;BME280;52593;42.648;23.332;2023-04-25T02:30:18;93679.31;;;8.74;100.00
65832;BME280;52593;42.648;23.332;2023-04-25T02:32:43;93669.31;;;8.76;100.00
65832;BME280;52593;42.648;23.332;2023-04-25T02:35:09;93675.03;;;8.73;100.00
65832;BME280;52593;42.648;23.332;2023-04-25T02:37:36;93669.50;;;8.74;100.00
65832;BME280;52593;42.648;23.332;2023-04-25T02:40:02;93686.47;;;8.67;100.00
65832;BME280;52593;42.648;23.332;2023-04-25T02:42:28;93673.41;;;8.50;100.00
65832;BME280;52593;42.648;23.332;2023-04-25T02:44:54;93685.16;;;8.56;100.00
65832;BME280;52593;42.648;23.332;2023-04-25T02:47:19;93676.97;;;8.57;100.00
65832;BME280;52593;42.648;23.332;2023-04-25T02:49:45;93685.69;;;8.51;100.00
65832;BME280;52593;42.648;23.332;2023-04-25T02:52:10;93674.28;;;8.57;100.00
65832;BME280;52593;42.648;23.332;2023-04-25T02:54:36;93669.09;;;8.49;100.00
65832;BME280;52593;42.648;23.332;2023-04-25T02:57:01;93658.03;;;8.31;100.00
65832;BME280;52593;42.648;23.332;2023-04-25T02:59:28;93656.25;;;8.38;100.00
65832;BME280;52593;42.648;23.332;2023-04-25T03:01:53;93655.56;;;8.29;100.00
65832;BME280;52593;42.648;23.332;2023-04-25T03:04:18;93656.63;;;8.35;100.00
65832;BME280;52593;42.648;23.332;2023-04-25T03:06:44;93656.19;;;8.31;100.00
65832;BME280;52593;42.648;23.332;2023-04-25T03:09:10;93658.91;;;8.38;100.00
65832;BME280;52593;42.648;23.332;2023-04-25T03:11:36;93655.59;;;8.36;100.00
65832;BME280;52593;42.648;23.332;2023-04-25T03:14:01;93647.88;;;8.41;100.00
65832;BME280;52593;42.648;23.332;2023-04-25T03:16:27;93650.34;;;8.43;100.00
65832;BME280;52593;42.648;23.332;2023-04-25T03:18:52;93647.81;;;8.56;100.00
65832;BME280;52593;42.648;23.332;2023-04-25T03:21:18;93654.81;;;8.42;100.00
65832;BME280;52593;42.648;23.332;2023-04-25T03:23:43;93659.22;;;8.50;100.00
65832;BME280;52593;42.648;23.332;2023-04-25T03:26:08;93649.50;;;8.42;100.00
65832;BME280;52593;42.648;23.332;2023-04-25T03:28:34;93643.22;;;8.50;100.00
65832;BME280;52593;42.648;23.332;2023-04-25T03:31:00;93650.00;;;8.46;100.00
65832;BME280;52593;42.648;23.332;2023-04-25T03:33:25;93637.66;;;8.45;100.00
65832;BME280;52593;42.648;23.332;2023-04-25T03:35:51;93649.16;;;8.45;100.00
65832;BME280;52593;42.648;23.332;2023-04-25T03:38:17;93640.94;;;8.47;100.00
65832;BME280;52593;42.648;23.332;2023-04-25T03:40:42;93668.50;;;8.54;100.00
65832;BME280;52593;42.648;23.332;2023-04-25T03:43:07;93670.94;;;8.49;100.00
65832;BME280;52593;42.648;23.332;2023-04-25T03:45:33;93648.47;;;8.65;100.00
65832;BME280;52593;42.648;23.332;2023-04-25T03:47:58;93631.81;;;8.56;100.00
65832;BME280;52593;42.648;23.332;2023-04-25T03:50:24;93644.13;;;8.57;100.00
65832;BME280;52593;42.648;23.332;2023-04-25T03:52:49;93638.09;;;8.48;100.00
65832;BME280;52593;42.648;23.332;2023-04-25T03:55:15;93644.63;;;8.67;100.00
65832;BME280;52593;42.648;23.332;2023-04-25T03:57:40;93636.81;;;8.66;100.00
65832;BME280;52593;42.648;23.332;2023-04-25T04:00:08;93637.13;;;8.84;100.00
65832;BME280;52593;42.648;23.332;2023-04-25T04:02:34;93639.25;;;8.96;100.00
65832;BME280;52593;42.648;23.332;2023-04-25T04:05:01;93645.84;;;9.00;100.00
65832;BME280;52593;42.648;23.332;2023-04-25T04:07:27;93641.41;;;9.14;100.00
65832;BME280;52593;42.648;23.332;2023-04-25T04:09:53;93660.50;;;9.17;100.00
65832;BME280;52593;42.648;23.332;2023-04-25T04:12:18;93659.50;;;9.18;100.00
65832;BME280;52593;42.648;23.332;2023-04-25T04:14:43;93652.50;;;9.17;100.00
65832;BME280;52593;42.648;23.332;2023-04-25T04:17:09;93651.16;;;9.28;100.00
65832;BME280;52593;42.648;23.332;2023-04-25T04:19:34;93660.66;;;9.37;100.00
65832;BME280;52593;42.648;23.332;2023-04-25T04:22:00;93666.53;;;9.26;100.00
65832;BME280;52593;42.648;23.332;2023-04-25T04:24:25;93665.16;;;9.37;100.00
65832;BME280;52593;42.648;23.332;2023-04-25T04:26:51;93672.34;;;9.36;100.00
65832;BME280;52593;42.648;23.332;2023-04-25T04:29:17;93670.47;;;9.37;100.00
65832;BME280;52593;42.648;23.332;2023-04-25T04:31:49;93650.00;;;9.44;100.00
65832;BME280;52593;42.648;23.332;2023-04-25T04:34:19;93651.47;;;9.53;100.00
65832;BME280;52593;42.648;23.332;2023-04-25T04:36:47;93648.53;;;9.41;100.00
65832;BME280;52593;42.648;23.332;2023-04-25T04:39:14;93632.72;;;9.40;100.00
65832;BME280;52593;42.648;23.332;2023-04-25T04:41:39;93642.75;;;9.31;100.00
65832;BME280;52593;42.648;23.332;2023-04-25T04:44:05;93650.16;;;9.36;100.00
65832;BME280;52593;42.648;23.332;2023-04-25T04:46:32;93665.34;;;9.35;100.00
65832;BME280;52593;42.648;23.332;2023-04-25T04:49:04;93659.59;;;9.38;100.00
65832;BME280;52593;42.648;23.332;2023-04-25T04:51:29;93641.75;;;9.39;100.00
65832;BME280;52593;42.648;23.332;2023-04-25T04:53:56;93639.09;;;9.39;100.00
65832;BME280;52593;42.648;23.332;2023-04-25T04:56:23;93653.53;;;9.58;100.00
65832;BME280;52593;42.648;23.332;2023-04-25T04:58:50;93666.28;;;9.56;100.00
65832;BME280;52593;42.648;23.332;2023-04-25T05:01:16;93664.41;;;9.56;100.00
65832;BME280;52593;42.648;23.332;2023-04-25T05:03:41;93663.81;;;9.54;100.00
65832;BME280;52593;42.648;23.332;2023-04-25T05:06:07;93679.53;;;9.36;100.00
65832;BME280;52593;42.648;23.332;2023-04-25T05:08:33;93667.75;;;9.23;100.00
65832;BME280;52593;42.648;23.332;2023-04-25T05:10:59;93687.41;;;9.16;100.00
65832;BME280;52593;42.648;23.332;2023-04-25T05:13:24;93682.94;;;9.23;100.00
65832;BME280;52593;42.648;23.332;2023-04-25T05:15:50;93672.22;;;9.16;100.00
65832;BME280;52593;42.648;23.332;2023-04-25T05:18:15;93695.88;;;9.26;100.00
65832;BME280;52593;42.648;23.332;2023-04-25T05:20:40;93691.94;;;9.15;100.00
65832;BME280;52593;42.648;23.332;2023-04-25T05:23:06;93682.25;;;9.14;100.00
65832;BME280;52593;42.648;23.332;2023-04-25T05:25:31;93689.97;;;9.31;100.00
65832;BME280;52593;42.648;23.332;2023-04-25T05:27:57;93696.16;;;9.38;100.00
65832;BME280;52593;42.648;23.332;2023-04-25T05:30:23;93677.09;;;9.41;100.00
65832;BME280;52593;42.648;23.332;2023-04-25T05:32:48;93694.56;;;9.43;100.00
65832;BME280;52593;42.648;23.332;2023-04-25T05:35:14;93688.84;;;9.46;100.00
65832;BME280;52593;42.648;23.332;2023-04-25T05:37:39;93690.03;;;9.44;100.00
65832;BME280;52593;42.648;23.332;2023-04-25T05:40:06;93691.50;;;9.46;100.00
65832;BME280;52593;42.648;23.332;2023-04-25T05:42:32;93692.34;;;9.54;100.00
65832;BME280;52593;42.648;23.332;2023-04-25T05:44:57;93681.91;;;9.59;100.00
65832;BME280;52593;42.648;23.332;2023-04-25T05:47:23;93685.47;;;9.79;100.00
65832;BME280;52593;42.648;23.332;2023-04-25T05:49:48;93686.47;;;9.78;100.00
65832;BME280;52593;42.648;23.332;2023-04-25T05:52:13;93685.66;;;9.78;100.00
65832;BME280;52593;42.648;23.332;2023-04-25T05:54:40;93687.13;;;9.80;100.00
65832;BME280;52593;42.648;23.332;2023-04-25T05:57:06;93688.94;;;9.80;100.00
65832;BME280;52593;42.648;23.332;2023-04-25T05:59:31;93692.88;;;9.84;100.00
65832;BME280;52593;42.648;23.332;2023-04-25T06:01:57;93691.81;;;9.78;100.00
65832;BME280;52593;42.648;23.332;2023-04-25T06:04:22;93690.66;;;9.88;100.00
65832;BME280;52593;42.648;23.332;2023-04-25T06:06:47;93697.44;;;9.90;100.00
65832;BME280;52593;42.648;23.332;2023-04-25T06:09:13;93680.78;;;9.88;100.00
65832;BME280;52593;42.648;23.332;2023-04-25T06:11:38;93697.44;;;9.90;100.00
65832;BME280;52593;42.648;23.332;2023-04-25T06:14:03;93691.28;;;9.90;99.76
65832;BME280;52593;42.648;23.332;2023-04-25T06:16:29;93679.31;;;9.86;100.00
65832;BME280;52593;42.648;23.332;2023-04-25T06:18:54;93687.78;;;9.96;98.92
65832;BME280;52593;42.648;23.332;2023-04-25T06:21:19;93689.59;;;9.89;99.62
65832;BME280;52593;42.648;23.332;2023-04-25T06:23:45;93684.47;;;9.87;98.82
65832;BME280;52593;42.648;23.332;2023-04-25T06:26:10;93680.13;;;9.86;98.67
65832;BME280;52593;42.648;23.332;2023-04-25T06:28:36;93693.69;;;9.85;99.52
65832;BME280;52593;42.648;23.332;2023-04-25T06:31:01;93686.13;;;9.88;100.00
65832;BME280;52593;42.648;23.332;2023-04-25T06:33:26;93700.16;;;10.04;99.77
65832;BME280;52593;42.648;23.332;2023-04-25T06:35:52;93679.38;;;10.06;99.19
65832;BME280;52593;42.648;23.332;2023-04-25T06:38:17;93687.88;;;10.29;97.66
65832;BME280;52593;42.648;23.332;2023-04-25T06:40:43;93691.84;;;10.47;97.20
65832;BME280;52593;42.648;23.332;2023-04-25T06:43:08;93697.41;;;10.65;97.36
65832;BME280;52593;42.648;23.332;2023-04-25T06:45:34;93701.53;;;10.81;96.54
65832;BME280;52593;42.648;23.332;2023-04-25T06:47:59;93690.00;;;10.74;94.60
65832;BME280;52593;42.648;23.332;2023-04-25T06:50:24;93710.78;;;10.79;93.33
65832;BME280;52593;42.648;23.332;2023-04-25T06:52:50;93702.38;;;10.75;92.50
65832;BME280;52593;42.648;23.332;2023-04-25T06:55:15;93690.63;;;10.83;92.49
65832;BME280;52593;42.648;23.332;2023-04-25T06:57:41;93695.38;;;10.67;90.61
65832;BME280;52593;42.648;23.332;2023-04-25T07:00:07;93700.28;;;11.11;88.75
65832;BME280;52593;42.648;23.332;2023-04-25T07:02:35;93685.63;;;11.33;88.69
65832;BME280;52593;42.648;23.332;2023-04-25T07:05:00;93695.94;;;11.23;88.51
65832;BME280;52593;42.648;23.332;2023-04-25T07:07:26;93695.31;;;11.34;88.46
65832;BME280;52593;42.648;23.332;2023-04-25T07:09:52;93693.03;;;11.45;86.58
65832;BME280;52593;42.648;23.332;2023-04-25T07:12:17;93705.59;;;11.44;87.95
65832;BME280;52593;42.648;23.332;2023-04-25T07:14:42;93690.16;;;11.39;87.87
65832;BME280;52593;42.648;23.332;2023-04-25T07:17:08;93690.78;;;11.35;88.08
65832;BME280;52593;42.648;23.332;2023-04-25T07:19:33;93684.38;;;11.36;89.35
65832;BME280;52593;42.648;23.332;2023-04-25T07:21:59;93682.50;;;11.56;88.61
65832;BME280;52593;42.648;23.332;2023-04-25T07:24:24;93684.28;;;11.69;88.49
65832;BME280;52593;42.648;23.332;2023-04-25T07:26:49;93680.94;;;11.81;87.66
65832;BME280;52593;42.648;23.332;2023-04-25T07:29:15;93683.63;;;11.81;83.43
65832;BME280;52593;42.648;23.332;2023-04-25T07:31:40;93680.13;;;11.80;84.27
65832;BME280;52593;42.648;23.332;2023-04-25T07:34:06;93678.25;;;11.87;84.60
65832;BME280;52593;42.648;23.332;2023-04-25T07:36:31;93673.28;;;11.98;83.77
65832;BME280;52593;42.648;23.332;2023-04-25T07:38:56;93682.97;;;11.99;83.62
65832;BME280;52593;42.648;23.332;2023-04-25T07:41:22;93687.50;;;11.98;84.38
65832;BME280;52593;42.648;23.332;2023-04-25T07:43:48;93680.19;;;12.19;84.25
65832;BME280;52593;42.648;23.332;2023-04-25T07:46:13;93674.69;;;12.39;81.91
65832;BME280;52593;42.648;23.332;2023-04-25T07:48:38;93666.47;;;12.34;82.40
65832;BME280;52593;42.648;23.332;2023-04-25T07:51:04;93670.41;;;12.31;82.28
65832;BME280;52593;42.648;23.332;2023-04-25T07:53:30;93674.00;;;12.18;82.63
65832;BME280;52593;42.648;23.332;2023-04-25T07:55:57;93678.88;;;12.35;82.45
65832;BME280;52593;42.648;23.332;2023-04-25T07:58:22;93660.53;;;12.57;81.91
65832;BME280;52593;42.648;23.332;2023-04-25T08:00:48;93678.59;;;12.75;82.05
65832;BME280;52593;42.648;23.332;2023-04-25T08:03:13;93672.72;;;12.84;78.96
65832;BME280;52593;42.648;23.332;2023-04-25T08:05:39;93662.03;;;12.53;81.86
65832;BME280;52593;42.648;23.332;2023-04-25T08:08:04;93670.59;;;12.68;81.71
65832;BME280;52593;42.648;23.332;2023-04-25T08:10:32;93675.63;;;12.83;80.37
65832;BME280;52593;42.648;23.332;2023-04-25T08:12:57;93662.53;;;12.93;79.83
65832;BME280;52593;42.648;23.332;2023-04-25T08:15:23;93672.84;;;13.22;79.16
65832;BME280;52593;42.648;23.332;2023-04-25T08:17:48;93658.13;;;13.24;74.98
65832;BME280;52593;42.648;23.332;2023-04-25T08:20:13;93663.72;;;13.23;76.11
65832;BME280;52593;42.648;23.332;2023-04-25T08:22:39;93654.69;;;13.17;76.92
65832;BME280;52593;42.648;23.332;2023-04-25T08:25:05;93664.00;;;13.14;76.49
65832;BME280;52593;42.648;23.332;2023-04-25T08:27:30;93654.63;;;13.24;76.14
65832;BME280;52593;42.648;23.332;2023-04-25T08:29:55;93636.78;;;13.29;76.52
65832;BME280;52593;42.648;23.332;2023-04-25T08:32:21;93646.91;;;13.52;75.81
65832;BME280;52593;42.648;23.332;2023-04-25T08:34:46;93636.84;;;13.66;72.98
65832;BME280;52593;42.648;23.332;2023-04-25T08:37:12;93643.09;;;13.79;72.21
65832;BME280;52593;42.648;23.332;2023-04-25T08:39:37;93648.75;;;13.70;68.99
65832;BME280;52593;42.648;23.332;2023-04-25T08:42:06;93655.94;;;13.58;67.80
65832;BME280;52593;42.648;23.332;2023-04-25T08:44:35;93683.25;;;13.11;68.90
65832;BME280;52593;42.648;23.332;2023-04-25T08:47:04;93667.25;;;12.73;75.95
65832;BME280;52593;42.648;23.332;2023-04-25T08:49:33;93656.56;;;12.34;77.30
65832;BME280;52593;42.648;23.332;2023-04-25T08:52:03;93665.13;;;12.49;75.55
65832;BME280;52593;42.648;23.332;2023-04-25T08:54:32;93657.44;;;12.85;74.06
65832;BME280;52593;42.648;23.332;2023-04-25T08:57:00;93654.81;;;12.78;75.73
65832;BME280;52593;42.648;23.332;2023-04-25T08:59:30;93639.50;;;13.04;74.99
65832;BME280;52593;42.648;23.332;2023-04-25T09:01:55;93633.34;;;13.22;77.47
65832;BME280;52593;42.648;23.332;2023-04-25T09:04:20;93636.31;;;13.14;80.83
65832;BME280;52593;42.648;23.332;2023-04-25T09:06:47;93637.16;;;12.89;78.46
65832;BME280;52593;42.648;23.332;2023-04-25T09:09:12;93641.94;;;12.87;80.16
65832;BME280;52593;42.648;23.332;2023-04-25T09:11:38;93639.56;;;12.72;80.13
65832;BME280;52593;42.648;23.332;2023-04-25T09:14:11;93638.88;;;12.83;81.00
65832;BME280;52593;42.648;23.332;2023-04-25T09:17:01;93647.78;;;13.02;82.25
65832;BME280;52593;42.648;23.332;2023-04-25T09:19:31;93634.13;;;13.04;80.78
65832;BME280;52593;42.648;23.332;2023-04-25T09:21:59;93632.59;;;13.15;81.20
65832;BME280;52593;42.648;23.332;2023-04-25T09:24:42;93637.72;;;13.42;79.86
65832;BME280;52593;42.648;23.332;2023-04-25T09:27:19;93635.28;;;13.40;80.32
65832;BME280;52593;42.648;23.332;2023-04-25T09:29:45;93634.88;;;13.36;80.33
65832;BME280;52593;42.648;23.332;2023-04-25T09:34:45;93630.47;;;13.42;79.91
65832;BME280;52593;42.648;23.332;2023-04-25T09:37:17;93610.69;;;13.36;78.40
65832;BME280;52593;42.648;23.332;2023-04-25T09:39:44;93626.81;;;13.55;79.66
65832;BME280;52593;42.648;23.332;2023-04-25T09:42:11;93633.03;;;13.55;81.03
65832;BME280;52593;42.648;23.332;2023-04-25T09:44:36;93633.16;;;13.61;79.34
65832;BME280;52593;42.648;23.332;2023-04-25T09:47:01;93632.25;;;13.67;75.92
65832;BME280;52593;42.648;23.332;2023-04-25T09:49:28;93624.72;;;13.76;75.57
65832;BME280;52593;42.648;23.332;2023-04-25T09:51:54;93623.63;;;14.14;76.40
65832;BME280;52593;42.648;23.332;2023-04-25T09:54:21;93627.84;;;14.52;71.41
65832;BME280;52593;42.648;23.332;2023-04-25T09:56:48;93623.91;;;14.66;69.10
65832;BME280;52593;42.648;23.332;2023-04-25T09:59:14;93613.69;;;14.56;68.53
65832;BME280;52593;42.648;23.332;2023-04-25T10:01:40;93608.38;;;14.50;69.34
65832;BME280;52593;42.648;23.332;2023-04-25T10:04:10;93620.41;;;14.47;69.81
65832;BME280;52593;42.648;23.332;2023-04-25T10:06:37;93613.66;;;14.44;70.88
65832;BME280;52593;42.648;23.332;2023-04-25T10:09:03;93608.28;;;14.14;65.63
65832;BME280;52593;42.648;23.332;2023-04-25T10:11:30;93617.34;;;14.32;69.92
65832;BME280;52593;42.648;23.332;2023-04-25T10:13:57;93604.72;;;14.02;69.43
65832;BME280;52593;42.648;23.332;2023-04-25T10:16:24;93643.38;;;13.89;67.28
65832;BME280;52593;42.648;23.332;2023-04-25T10:18:49;93637.72;;;13.60;61.48
65832;BME280;52593;42.648;23.332;2023-04-25T10:21:15;93661.78;;;13.30;60.30
65832;BME280;52593;42.648;23.332;2023-04-25T10:23:41;93629.72;;;12.91;60.66
65832;BME280;52593;42.648;23.332;2023-04-25T10:26:08;93622.50;;;13.10;65.41
65832;BME280;52593;42.648;23.332;2023-04-25T10:29:03;93605.25;;;13.62;59.44
65832;BME280;52593;42.648;23.332;2023-04-25T10:31:31;93600.22;;;14.14;61.29
65832;BME280;52593;42.648;23.332;2023-04-25T10:33:59;93597.84;;;14.48;57.03
65832;BME280;52593;42.648;23.332;2023-04-25T10:36:24;93589.03;;;15.07;54.57
65832;BME280;52593;42.648;23.332;2023-04-25T10:38:52;93578.16;;;15.25;57.25
65832;BME280;52593;42.648;23.332;2023-04-25T10:41:19;93600.91;;;16.11;52.30
65832;BME280;52593;42.648;23.332;2023-04-25T10:43:46;93585.41;;;15.89;50.86
65832;BME280;52593;42.648;23.332;2023-04-25T10:46:15;93594.69;;;15.69;51.40
65832;BME280;52593;42.648;23.332;2023-04-25T10:48:58;93593.69;;;15.47;53.40
65832;BME280;52593;42.648;23.332;2023-04-25T10:51:31;93604.53;;;14.57;54.44
65832;BME280;52593;42.648;23.332;2023-04-25T10:56:25;93619.53;;;13.93;56.68
65832;BME280;52593;42.648;23.332;2023-04-25T10:58:51;93616.19;;;13.97;59.24
65832;BME280;52593;42.648;23.332;2023-04-25T11:01:21;93607.97;;;13.92;57.46
65832;BME280;52593;42.648;23.332;2023-04-25T11:03:47;93612.69;;;14.08;59.13
65832;BME280;52593;42.648;23.332;2023-04-25T11:09:10;93617.19;;;14.57;60.55
65832;BME280;52593;42.648;23.332;2023-04-25T11:11:38;93592.28;;;15.56;59.13
65832;BME280;52593;42.648;23.332;2023-04-25T11:14:03;93593.00;;;15.92;57.07
65832;BME280;52593;42.648;23.332;2023-04-25T11:16:29;93588.47;;;15.81;54.44
65832;BME280;52593;42.648;23.332;2023-04-25T11:18:57;93574.94;;;15.40;51.39
65832;BME280;52593;42.648;23.332;2023-04-25T11:21:23;93580.25;;;15.76;50.24
65832;BME280;52593;42.648;23.332;2023-04-25T11:23:48;93578.88;;;15.61;48.79
65832;BME280;52593;42.648;23.332;2023-04-25T11:26:14;93588.69;;;15.15;52.32
65832;BME280;52593;42.648;23.332;2023-04-25T11:28:40;93589.25;;;15.17;51.88
65832;BME280;52593;42.648;23.332;2023-04-25T11:31:05;93579.19;;;14.77;53.15
65832;BME280;52593;42.648;23.332;2023-04-25T11:33:31;93588.09;;;14.66;56.08
65832;BME280;52593;42.648;23.332;2023-04-25T11:35:56;93603.13;;;14.43;54.52
65832;BME280;52593;42.648;23.332;2023-04-25T11:38:22;93605.88;;;14.24;55.28
65832;BME280;52593;42.648;23.332;2023-04-25T11:40:52;93583.66;;;13.99;57.20
65832;BME280;52593;42.648;23.332;2023-04-25T11:43:20;93606.41;;;13.84;56.73
65832;BME280;52593;42.648;23.332;2023-04-25T11:45:48;93616.13;;;13.67;59.50
65832;BME280;52593;42.648;23.332;2023-04-25T11:48:14;93630.56;;;13.35;61.04
65832;BME280;52593;42.648;23.332;2023-04-25T11:50:39;93644.94;;;12.97;62.72
65832;BME280;52593;42.648;23.332;2023-04-25T11:53:05;93652.56;;;12.75;67.78
65832;BME280;52593;42.648;23.332;2023-04-25T11:55:31;93647.34;;;12.23;70.19
65832;BME280;52593;42.648;23.332;2023-04-25T11:57:59;93652.69;;;11.85;73.38
65832;BME280;52593;42.648;23.332;2023-04-25T12:00:25;93639.97;;;11.73;78.71
65832;BME280;52593;42.648;23.332;2023-04-25T12:02:55;93618.25;;;11.82;80.62
65832;BME280;52593;42.648;23.332;2023-04-25T12:05:28;93612.25;;;12.57;83.33
65832;BME280;52593;42.648;23.332;2023-04-25T12:07:54;93603.03;;;13.40;82.13
65832;BME280;52593;42.648;23.332;2023-04-25T12:10:20;93594.09;;;13.58;74.72
65832;BME280;52593;42.648;23.332;2023-04-25T12:12:47;93588.31;;;13.43;77.98
65832;BME280;52593;42.648;23.332;2023-04-25T12:15:15;93590.75;;;13.63;77.06
65832;BME280;52593;42.648;23.332;2023-04-25T12:17:47;93571.94;;;14.23;77.40
65832;BME280;52593;42.648;23.332;2023-04-25T12:20:15;93582.69;;;14.77;73.34
65832;BME280;52593;42.648;23.332;2023-04-25T12:22:42;93589.81;;;14.60;71.14
65832;BME280;52593;42.648;23.332;2023-04-25T12:25:13;93569.53;;;14.03;72.75
65832;BME280;52593;42.648;23.332;2023-04-25T12:27:39;93565.31;;;13.96;72.82
65832;BME280;52593;42.648;23.332;2023-04-25T12:30:09;93558.81;;;14.15;74.71
65832;BME280;52593;42.648;23.332;2023-04-25T12:32:36;93573.81;;;14.77;71.91
65832;BME280;52593;42.648;23.332;2023-04-25T12:35:01;93576.13;;;15.32;67.27
65832;BME280;52593;42.648;23.332;2023-04-25T12:37:28;93600.41;;;15.21;62.60
65832;BME280;52593;42.648;23.332;2023-04-25T12:39:53;93601.94;;;14.08;66.64
65832;BME280;52593;42.648;23.332;2023-04-25T12:42:19;93618.22;;;13.28;67.72
65832;BME280;52593;42.648;23.332;2023-04-25T12:44:44;93626.84;;;13.11;68.77
65832;BME280;52593;42.648;23.332;2023-04-25T12:47:10;93652.56;;;12.75;72.70
65832;BME280;52593;42.648;23.332;2023-04-25T12:49:35;93654.31;;;12.88;74.63
65832;BME280;52593;42.648;23.332;2023-04-25T12:52:01;93658.59;;;12.39;75.01
65832;BME280;52593;42.648;23.332;2023-04-25T12:54:26;93660.16;;;11.69;75.38